sensor_id;sensor_type;location;lat;lon;timestamp;P1;durP1;ratioP1;P2;durP2;ratioP2
15958;SDS011;8078;47.822;9.402;2023-06-01T00:01:52;14.88;;;5.72;;
15958;SDS011;8078;47.822;9.402;2023-06-01T00:04:17;11.20;;;5.53;;
15958;SDS011;8078;47.822;9.402;2023-06-01T00:06:43;12.23;;;5.75;;
15958;SDS011;8078;47.822;9.402;2023-06-01T00:09:09;11.13;;;5.53;;
15958;SDS011;8078;47.822;9.402;2023-06-01T00:11:35;10.00;;;5.50;;
15958;SDS011;8078;47.822;9.402;2023-06-01T00:14:01;10.45;;;5.97;;
15958;SDS011;8078;47.822;9.402;2023-06-01T00:16:27;12.38;;;5.72;;
15958;SDS011;8078;47.822;9.402;2023-06-01T00:18:56;8.55;;;6.18;;
15958;SDS011;8078;47.822;9.402;2023-06-01T00:21:25;12.70;;;6.10;;
15958;SDS011;8078;47.822;9.402;2023-06-01T00:23:51;8.27;;;5.47;;
15958;SDS011;8078;47.822;9.402;2023-06-01T00:26:16;9.10;;;5.68;;
15958;SDS011;8078;47.822;9.402;2023-06-01T00:28:42;8.57;;;5.97;;
15958;SDS011;8078;47.822;9.402;2023-06-01T00:31:08;10.80;;;6.45;;
15958;SDS011;8078;47.822;9.402;2023-06-01T00:33:33;10.43;;;6.03;;
15958;SDS011;8078;47.822;9.402;2023-06-01T00:35:59;10.07;;;5.95;;
15958;SDS011;8078;47.822;9.402;2023-06-01T00:38:24;8.93;;;5.78;;
15958;SDS011;8078;47.822;9.402;2023-06-01T00:40:50;11.70;;;5.95;;
15958;SDS011;8078;47.822;9.402;2023-06-01T00:43:16;16.25;;;6.18;;
15958;SDS011;8078;47.822;9.402;2023-06-01T00:45:43;7.78;;;5.05;;
15958;SDS011;8078;47.822;9.402;2023-06-01T00:48:08;12.75;;;5.90;;
15958;SDS011;8078;47.822;9.402;2023-06-01T00:50:35;7.70;;;5.70;;
15958;SDS011;8078;47.822;9.402;2023-06-01T00:53:01;10.32;;;5.95;;
15958;SDS011;8078;47.822;9.402;2023-06-01T00:55:29;8.80;;;6.35;;
15958;SDS011;8078;47.822;9.402;2023-06-01T00:57:55;7.60;;;5.40;;
15958;SDS011;8078;47.822;9.402;2023-06-01T01:00:21;12.02;;;6.38;;
15958;SDS011;8078;47.822;9.402;2023-06-01T01:02:47;8.93;;;6.20;;
15958;SDS011;8078;47.822;9.402;2023-06-01T01:05:14;10.35;;;5.70;;
15958;SDS011;8078;47.822;9.402;2023-06-01T01:13:10;9.32;;;5.35;;
15958;SDS011;8078;47.822;9.402;2023-06-01T01:18:31;14.55;;;5.95;;
15958;SDS011;8078;47.822;9.402;2023-06-01T01:21:02;11.70;;;6.03;;
15958;SDS011;8078;47.822;9.402;2023-06-01T01:29:09;10.57;;;6.25;;
15958;SDS011;8078;47.822;9.402;2023-06-01T01:31:35;9.85;;;5.97;;
15958;SDS011;8078;47.822;9.402;2023-06-01T01:34:03;9.48;;;6.50;;
15958;SDS011;8078;47.822;9.402;2023-06-01T01:36:29;10.73;;;6.25;;
15958;SDS011;8078;47.822;9.402;2023-06-01T01:38:55;14.05;;;6.00;;
15958;SDS011;8078;47.822;9.402;2023-06-01T01:41:21;11.18;;;6.15;;
15958;SDS011;8078;47.822;9.402;2023-06-01T01:43:50;10.90;;;6.45;;
15958;SDS011;8078;47.822;9.402;2023-06-01T01:48:52;9.75;;;6.03;;
15958;SDS011;8078;47.822;9.402;2023-06-01T01:51:32;9.70;;;6.60;;
15958;SDS011;8078;47.822;9.402;2023-06-01T01:54:04;9.07;;;6.15;;
15958;SDS011;8078;47.822;9.402;2023-06-01T01:56:33;11.60;;;6.50;;
15958;SDS011;8078;47.822;9.402;2023-06-01T01:59:01;10.05;;;6.40;;
15958;SDS011;8078;47.822;9.402;2023-06-01T02:01:28;9.85;;;6.47;;
15958;SDS011;8078;47.822;9.402;2023-06-01T02:03:58;9.93;;;6.45;;
15958;SDS011;8078;47.822;9.402;2023-06-01T02:06:25;10.88;;;6.20;;
15958;SDS011;8078;47.822;9.402;2023-06-01T02:08:50;11.63;;;6.32;;
15958;SDS011;8078;47.822;9.402;2023-06-01T02:11:16;10.45;;;6.57;;
15958;SDS011;8078;47.822;9.402;2023-06-01T02:13:41;12.50;;;6.10;;
15958;SDS011;8078;47.822;9.402;2023-06-01T02:16:07;12.38;;;6.50;;
15958;SDS011;8078;47.822;9.402;2023-06-01T02:18:32;10.82;;;6.53;;
15958;SDS011;8078;47.822;9.402;2023-06-01T02:20:58;10.35;;;6.38;;
15958;SDS011;8078;47.822;9.402;2023-06-01T02:23:23;9.18;;;6.05;;
15958;SDS011;8078;47.822;9.402;2023-06-01T02:25:49;12.98;;;6.70;;
15958;SDS011;8078;47.822;9.402;2023-06-01T02:28:15;9.88;;;6.32;;
15958;SDS011;8078;47.822;9.402;2023-06-01T02:30:40;12.02;;;6.82;;
15958;SDS011;8078;47.822;9.402;2023-06-01T02:33:06;9.25;;;6.60;;
15958;SDS011;8078;47.822;9.402;2023-06-01T02:35:32;11.68;;;7.22;;
15958;SDS011;8078;47.822;9.402;2023-06-01T02:37:57;14.18;;;6.78;;
15958;SDS011;8078;47.822;9.402;2023-06-01T02:40:23;11.15;;;6.40;;
15958;SDS011;8078;47.822;9.402;2023-06-01T02:42:48;8.63;;;6.65;;
15958;SDS011;8078;47.822;9.402;2023-06-01T02:45:14;11.50;;;7.00;;
15958;SDS011;8078;47.822;9.402;2023-06-01T02:47:40;11.25;;;6.70;;
15958;SDS011;8078;47.822;9.402;2023-06-01T02:50:05;10.68;;;7.20;;
15958;SDS011;8078;47.822;9.402;2023-06-01T02:52:31;13.80;;;6.97;;
15958;SDS011;8078;47.822;9.402;2023-06-01T02:54:57;8.63;;;6.40;;
15958;SDS011;8078;47.822;9.402;2023-06-01T02:57:22;13.98;;;7.50;;
15958;SDS011;8078;47.822;9.402;2023-06-01T02:59:48;11.98;;;6.85;;
15958;SDS011;8078;47.822;9.402;2023-06-01T03:02:13;9.48;;;6.38;;
15958;SDS011;8078;47.822;9.402;2023-06-01T03:04:39;12.50;;;6.45;;
15958;SDS011;8078;47.822;9.402;2023-06-01T03:07:05;10.10;;;6.22;;
15958;SDS011;8078;47.822;9.402;2023-06-01T03:09:31;9.98;;;6.80;;
15958;SDS011;8078;47.822;9.402;2023-06-01T03:11:57;10.05;;;6.55;;
15958;SDS011;8078;47.822;9.402;2023-06-01T03:14:22;11.35;;;7.03;;
15958;SDS011;8078;47.822;9.402;2023-06-01T03:16:48;10.05;;;6.72;;
15958;SDS011;8078;47.822;9.402;2023-06-01T03:19:13;8.57;;;6.63;;
15958;SDS011;8078;47.822;9.402;2023-06-01T03:21:39;8.27;;;6.50;;
15958;SDS011;8078;47.822;9.402;2023-06-01T03:24:05;10.80;;;6.93;;
15958;SDS011;8078;47.822;9.402;2023-06-01T03:26:31;13.23;;;6.80;;
15958;SDS011;8078;47.822;9.402;2023-06-01T03:28:57;14.32;;;7.28;;
15958;SDS011;8078;47.822;9.402;2023-06-01T03:31:23;11.40;;;6.18;;
15958;SDS011;8078;47.822;9.402;2023-06-01T03:33:48;14.57;;;7.25;;
15958;SDS011;8078;47.822;9.402;2023-06-01T03:36:14;9.93;;;6.88;;
15958;SDS011;8078;47.822;9.402;2023-06-01T03:38:40;13.60;;;6.82;;
15958;SDS011;8078;47.822;9.402;2023-06-01T03:41:07;12.23;;;7.45;;
15958;SDS011;8078;47.822;9.402;2023-06-01T03:43:33;11.70;;;7.00;;
15958;SDS011;8078;47.822;9.402;2023-06-01T03:45:59;10.25;;;7.03;;
15958;SDS011;8078;47.822;9.402;2023-06-01T03:48:24;14.05;;;7.28;;
15958;SDS011;8078;47.822;9.402;2023-06-01T03:50:50;10.00;;;7.20;;
15958;SDS011;8078;47.822;9.402;2023-06-01T03:53:16;12.30;;;6.78;;
15958;SDS011;8078;47.822;9.402;2023-06-01T03:55:41;13.88;;;7.43;;
15958;SDS011;8078;47.822;9.402;2023-06-01T03:58:07;11.50;;;6.68;;
15958;SDS011;8078;47.822;9.402;2023-06-01T04:00:32;14.02;;;6.78;;
15958;SDS011;8078;47.822;9.402;2023-06-01T04:02:58;13.43;;;6.05;;
15958;SDS011;8078;47.822;9.402;2023-06-01T04:05:26;10.23;;;5.97;;
15958;SDS011;8078;47.822;9.402;2023-06-01T04:07:52;9.30;;;6.90;;
15958;SDS011;8078;47.822;9.402;2023-06-01T04:10:19;10.50;;;6.45;;
15958;SDS011;8078;47.822;9.402;2023-06-01T04:12:45;10.60;;;6.57;;
15958;SDS011;8078;47.822;9.402;2023-06-01T04:15:14;11.90;;;6.38;;
15958;SDS011;8078;47.822;9.402;2023-06-01T04:17:41;14.13;;;6.82;;
15958;SDS011;8078;47.822;9.402;2023-06-01T04:20:11;10.80;;;6.82;;
15958;SDS011;8078;47.822;9.402;2023-06-01T04:22:38;11.85;;;6.57;;
15958;SDS011;8078;47.822;9.402;2023-06-01T04:25:08;11.25;;;6.22;;
15958;SDS011;8078;47.822;9.402;2023-06-01T04:27:42;8.88;;;6.10;;
15958;SDS011;8078;47.822;9.402;2023-06-01T04:30:10;8.18;;;6.40;;
15958;SDS011;8078;47.822;9.402;2023-06-01T04:32:36;8.23;;;6.15;;
15958;SDS011;8078;47.822;9.402;2023-06-01T04:35:07;12.13;;;6.72;;
15958;SDS011;8078;47.822;9.402;2023-06-01T04:37:33;8.90;;;6.05;;
15958;SDS011;8078;47.822;9.402;2023-06-01T04:40:00;10.00;;;6.13;;
15958;SDS011;8078;47.822;9.402;2023-06-01T04:42:26;9.93;;;6.72;;
15958;SDS011;8078;47.822;9.402;2023-06-01T04:44:55;11.88;;;6.38;;
15958;SDS011;8078;47.822;9.402;2023-06-01T04:47:20;8.90;;;6.13;;
15958;SDS011;8078;47.822;9.402;2023-06-01T04:49:46;9.90;;;6.40;;
15958;SDS011;8078;47.822;9.402;2023-06-01T04:52:12;8.82;;;6.05;;
15958;SDS011;8078;47.822;9.402;2023-06-01T04:54:38;9.02;;;6.25;;
15958;SDS011;8078;47.822;9.402;2023-06-01T04:57:05;11.63;;;6.32;;
15958;SDS011;8078;47.822;9.402;2023-06-01T04:59:31;11.85;;;6.32;;
15958;SDS011;8078;47.822;9.402;2023-06-01T05:01:57;12.98;;;6.72;;
15958;SDS011;8078;47.822;9.402;2023-06-01T05:04:23;12.35;;;5.88;;
15958;SDS011;8078;47.822;9.402;2023-06-01T05:06:48;10.82;;;6.10;;
15958;SDS011;8078;47.822;9.402;2023-06-01T05:09:14;9.15;;;6.50;;
15958;SDS011;8078;47.822;9.402;2023-06-01T05:11:40;9.38;;;6.93;;
15958;SDS011;8078;47.822;9.402;2023-06-01T05:14:06;9.43;;;6.60;;
15958;SDS011;8078;47.822;9.402;2023-06-01T05:16:31;10.60;;;6.13;;
15958;SDS011;8078;47.822;9.402;2023-06-01T05:18:57;9.45;;;6.75;;
15958;SDS011;8078;47.822;9.402;2023-06-01T05:21:23;15.98;;;6.95;;
15958;SDS011;8078;47.822;9.402;2023-06-01T05:23:48;12.30;;;6.05;;
15958;SDS011;8078;47.822;9.402;2023-06-01T05:26:14;13.88;;;7.15;;
15958;SDS011;8078;47.822;9.402;2023-06-01T05:28:39;10.15;;;6.50;;
15958;SDS011;8078;47.822;9.402;2023-06-01T05:31:05;11.32;;;6.65;;
15958;SDS011;8078;47.822;9.402;2023-06-01T05:33:31;9.05;;;5.65;;
15958;SDS011;8078;47.822;9.402;2023-06-01T05:35:56;11.55;;;6.70;;
15958;SDS011;8078;47.822;9.402;2023-06-01T05:38:22;10.43;;;6.55;;
15958;SDS011;8078;47.822;9.402;2023-06-01T05:40:48;11.95;;;6.57;;
15958;SDS011;8078;47.822;9.402;2023-06-01T05:43:14;7.85;;;5.90;;
15958;SDS011;8078;47.822;9.402;2023-06-01T05:45:40;12.07;;;6.63;;
15958;SDS011;8078;47.822;9.402;2023-06-01T05:48:05;11.70;;;6.30;;
15958;SDS011;8078;47.822;9.402;2023-06-01T05:50:31;10.38;;;6.50;;
15958;SDS011;8078;47.822;9.402;2023-06-01T05:52:56;10.25;;;6.45;;
15958;SDS011;8078;47.822;9.402;2023-06-01T05:55:22;9.63;;;6.03;;
15958;SDS011;8078;47.822;9.402;2023-06-01T05:57:48;11.48;;;6.28;;
15958;SDS011;8078;47.822;9.402;2023-06-01T06:00:13;8.27;;;6.65;;
15958;SDS011;8078;47.822;9.402;2023-06-01T06:02:41;11.10;;;6.18;;
15958;SDS011;8078;47.822;9.402;2023-06-01T06:05:07;9.82;;;6.57;;
15958;SDS011;8078;47.822;9.402;2023-06-01T06:07:34;10.85;;;7.18;;
15958;SDS011;8078;47.822;9.402;2023-06-01T06:10:00;13.38;;;6.72;;
15958;SDS011;8078;47.822;9.402;2023-06-01T06:12:26;9.95;;;6.68;;
15958;SDS011;8078;47.822;9.402;2023-06-01T06:14:52;10.02;;;6.68;;
15958;SDS011;8078;47.822;9.402;2023-06-01T06:17:17;10.70;;;6.80;;
15958;SDS011;8078;47.822;9.402;2023-06-01T06:19:43;13.15;;;6.25;;
15958;SDS011;8078;47.822;9.402;2023-06-01T06:22:09;11.65;;;7.13;;
15958;SDS011;8078;47.822;9.402;2023-06-01T06:24:35;9.45;;;6.90;;
15958;SDS011;8078;47.822;9.402;2023-06-01T06:27:01;9.48;;;6.75;;
15958;SDS011;8078;47.822;9.402;2023-06-01T06:29:27;9.38;;;6.13;;
15958;SDS011;8078;47.822;9.402;2023-06-01T06:31:54;12.90;;;6.60;;
15958;SDS011;8078;47.822;9.402;2023-06-01T06:34:20;9.85;;;6.88;;
15958;SDS011;8078;47.822;9.402;2023-06-01T06:36:45;12.48;;;7.03;;
15958;SDS011;8078;47.822;9.402;2023-06-01T06:39:11;9.90;;;6.65;;
15958;SDS011;8078;47.822;9.402;2023-06-01T06:41:37;14.50;;;7.57;;
15958;SDS011;8078;47.822;9.402;2023-06-01T06:44:05;9.57;;;6.65;;
15958;SDS011;8078;47.822;9.402;2023-06-01T06:46:31;10.40;;;6.70;;
15958;SDS011;8078;47.822;9.402;2023-06-01T06:48:56;10.88;;;6.97;;
15958;SDS011;8078;47.822;9.402;2023-06-01T06:51:22;10.00;;;6.25;;
15958;SDS011;8078;47.822;9.402;2023-06-01T06:53:48;12.45;;;7.82;;
15958;SDS011;8078;47.822;9.402;2023-06-01T06:56:13;10.32;;;6.38;;
15958;SDS011;8078;47.822;9.402;2023-06-01T06:58:39;12.05;;;7.18;;
15958;SDS011;8078;47.822;9.402;2023-06-01T07:01:05;13.20;;;7.18;;
15958;SDS011;8078;47.822;9.402;2023-06-01T07:03:31;11.13;;;7.38;;
15958;SDS011;8078;47.822;9.402;2023-06-01T07:05:57;16.67;;;7.72;;
15958;SDS011;8078;47.822;9.402;2023-06-01T07:08:22;10.07;;;6.82;;
15958;SDS011;8078;47.822;9.402;2023-06-01T07:10:48;13.27;;;7.43;;
15958;SDS011;8078;47.822;9.402;2023-06-01T07:13:14;15.25;;;7.28;;
15958;SDS011;8078;47.822;9.402;2023-06-01T07:15:39;9.75;;;6.78;;
15958;SDS011;8078;47.822;9.402;2023-06-01T07:18:05;11.10;;;7.10;;
15958;SDS011;8078;47.822;9.402;2023-06-01T07:20:31;16.10;;;8.13;;
15958;SDS011;8078;47.822;9.402;2023-06-01T07:22:57;12.25;;;7.32;;
15958;SDS011;8078;47.822;9.402;2023-06-01T07:25:23;15.80;;;8.05;;
15958;SDS011;8078;47.822;9.402;2023-06-01T07:27:48;9.90;;;7.25;;
15958;SDS011;8078;47.822;9.402;2023-06-01T07:30:14;11.55;;;7.10;;
15958;SDS011;8078;47.822;9.402;2023-06-01T07:32:41;12.88;;;8.02;;
15958;SDS011;8078;47.822;9.402;2023-06-01T07:35:07;11.02;;;6.97;;
15958;SDS011;8078;47.822;9.402;2023-06-01T07:37:33;9.13;;;7.38;;
15958;SDS011;8078;47.822;9.402;2023-06-01T07:39:59;12.95;;;8.50;;
15958;SDS011;8078;47.822;9.402;2023-06-01T07:42:25;9.75;;;6.72;;
15958;SDS011;8078;47.822;9.402;2023-06-01T07:44:50;10.60;;;7.03;;
15958;SDS011;8078;47.822;9.402;2023-06-01T07:47:16;14.25;;;6.88;;
15958;SDS011;8078;47.822;9.402;2023-06-01T07:49:42;11.75;;;7.22;;
15958;SDS011;8078;47.822;9.402;2023-06-01T07:52:08;8.88;;;6.72;;
15958;SDS011;8078;47.822;9.402;2023-06-01T07:54:34;11.38;;;6.95;;
15958;SDS011;8078;47.822;9.402;2023-06-01T07:57:03;10.98;;;7.53;;
15958;SDS011;8078;47.822;9.402;2023-06-01T07:59:29;13.38;;;6.78;;
15958;SDS011;8078;47.822;9.402;2023-06-01T08:01:58;11.52;;;7.80;;
15958;SDS011;8078;47.822;9.402;2023-06-01T08:04:25;9.70;;;7.50;;
15958;SDS011;8078;47.822;9.402;2023-06-01T08:06:52;18.73;;;7.05;;
15958;SDS011;8078;47.822;9.402;2023-06-01T08:09:21;12.98;;;7.43;;
15958;SDS011;8078;47.822;9.402;2023-06-01T08:11:49;13.30;;;8.18;;
15958;SDS011;8078;47.822;9.402;2023-06-01T08:14:14;10.63;;;7.38;;
15958;SDS011;8078;47.822;9.402;2023-06-01T08:16:41;10.85;;;7.25;;
15958;SDS011;8078;47.822;9.402;2023-06-01T08:19:07;9.95;;;7.72;;
15958;SDS011;8078;47.822;9.402;2023-06-01T08:21:33;11.50;;;7.00;;
15958;SDS011;8078;47.822;9.402;2023-06-01T08:24:00;8.50;;;6.80;;
15958;SDS011;8078;47.822;9.402;2023-06-01T08:26:27;13.63;;;7.25;;
15958;SDS011;8078;47.822;9.402;2023-06-01T08:28:53;13.50;;;6.93;;
15958;SDS011;8078;47.822;9.402;2023-06-01T08:31:22;11.05;;;7.53;;
15958;SDS011;8078;47.822;9.402;2023-06-01T08:33:49;12.40;;;7.75;;
15958;SDS011;8078;47.822;9.402;2023-06-01T08:36:16;12.02;;;7.22;;
15958;SDS011;8078;47.822;9.402;2023-06-01T08:38:42;10.80;;;6.85;;
15958;SDS011;8078;47.822;9.402;2023-06-01T08:41:14;12.70;;;7.75;;
15958;SDS011;8078;47.822;9.402;2023-06-01T08:43:49;11.65;;;7.78;;
15958;SDS011;8078;47.822;9.402;2023-06-01T08:46:21;12.05;;;7.40;;
15958;SDS011;8078;47.822;9.402;2023-06-01T08:48:48;9.98;;;6.88;;
15958;SDS011;8078;47.822;9.402;2023-06-01T08:51:17;11.73;;;7.05;;
15958;SDS011;8078;47.822;9.402;2023-06-01T08:53:43;9.68;;;6.68;;
15958;SDS011;8078;47.822;9.402;2023-06-01T08:56:11;8.95;;;6.45;;
15958;SDS011;8078;47.822;9.402;2023-06-01T08:58:37;14.38;;;6.43;;
15958;SDS011;8078;47.822;9.402;2023-06-01T09:01:06;15.38;;;7.38;;
15958;SDS011;8078;47.822;9.402;2023-06-01T09:03:31;9.38;;;7.15;;
15958;SDS011;8078;47.822;9.402;2023-06-01T09:05:57;11.13;;;6.90;;
15958;SDS011;8078;47.822;9.402;2023-06-01T09:08:23;11.02;;;6.80;;
15958;SDS011;8078;47.822;9.402;2023-06-01T09:10:49;8.90;;;6.10;;
15958;SDS011;8078;47.822;9.402;2023-06-01T09:13:29;16.40;;;7.82;;
15958;SDS011;8078;47.822;9.402;2023-06-01T09:15:59;11.43;;;6.20;;
15958;SDS011;8078;47.822;9.402;2023-06-01T09:18:27;11.85;;;6.90;;
15958;SDS011;8078;47.822;9.402;2023-06-01T09:20:53;11.30;;;6.53;;
15958;SDS011;8078;47.822;9.402;2023-06-01T09:23:25;10.27;;;6.97;;
15958;SDS011;8078;47.822;9.402;2023-06-01T09:26:07;11.35;;;6.65;;
15958;SDS011;8078;47.822;9.402;2023-06-01T09:28:53;10.90;;;6.85;;
15958;SDS011;8078;47.822;9.402;2023-06-01T09:31:44;14.65;;;7.53;;
15958;SDS011;8078;47.822;9.402;2023-06-01T09:34:11;8.90;;;6.72;;
15958;SDS011;8078;47.822;9.402;2023-06-01T09:36:43;9.77;;;6.55;;
15958;SDS011;8078;47.822;9.402;2023-06-01T09:39:09;11.85;;;7.25;;
15958;SDS011;8078;47.822;9.402;2023-06-01T09:41:46;7.65;;;6.32;;
15958;SDS011;8078;47.822;9.402;2023-06-01T09:46:48;9.52;;;6.72;;
15958;SDS011;8078;47.822;9.402;2023-06-01T09:49:22;12.38;;;6.75;;
15958;SDS011;8078;47.822;9.402;2023-06-01T09:51:50;10.18;;;6.63;;
15958;SDS011;8078;47.822;9.402;2023-06-01T09:54:26;13.25;;;6.70;;
15958;SDS011;8078;47.822;9.402;2023-06-01T09:56:54;9.57;;;6.57;;
15958;SDS011;8078;47.822;9.402;2023-06-01T09:59:21;13.20;;;6.75;;
15958;SDS011;8078;47.822;9.402;2023-06-01T10:01:52;10.70;;;7.18;;
15958;SDS011;8078;47.822;9.402;2023-06-01T10:04:20;8.10;;;6.80;;
15958;SDS011;8078;47.822;9.402;2023-06-01T10:06:56;9.15;;;6.75;;
15958;SDS011;8078;47.822;9.402;2023-06-01T10:09:23;9.82;;;6.60;;
15958;SDS011;8078;47.822;9.402;2023-06-01T10:11:55;9.38;;;6.72;;
15958;SDS011;8078;47.822;9.402;2023-06-01T10:14:21;15.48;;;7.20;;
15958;SDS011;8078;47.822;9.402;2023-06-01T10:16:50;8.02;;;6.45;;
15958;SDS011;8078;47.822;9.402;2023-06-01T10:19:17;9.93;;;6.90;;
15958;SDS011;8078;47.822;9.402;2023-06-01T10:21:44;8.90;;;6.30;;
15958;SDS011;8078;47.822;9.402;2023-06-01T10:24:10;10.95;;;7.07;;
15958;SDS011;8078;47.822;9.402;2023-06-01T10:26:42;8.90;;;6.63;;
15958;SDS011;8078;47.822;9.402;2023-06-01T10:29:15;11.43;;;6.80;;
15958;SDS011;8078;47.822;9.402;2023-06-01T10:31:43;10.23;;;7.13;;
15958;SDS011;8078;47.822;9.402;2023-06-01T10:34:10;11.40;;;7.05;;
15958;SDS011;8078;47.822;9.402;2023-06-01T10:39:27;12.10;;;6.25;;
15958;SDS011;8078;47.822;9.402;2023-06-01T10:41:55;11.18;;;6.80;;
15958;SDS011;8078;47.822;9.402;2023-06-01T10:47:12;13.57;;;6.38;;
15958;SDS011;8078;47.822;9.402;2023-06-01T10:52:26;12.02;;;6.13;;
15958;SDS011;8078;47.822;9.402;2023-06-01T10:57:31;9.77;;;6.35;;
15958;SDS011;8078;47.822;9.402;2023-06-01T11:00:08;8.88;;;6.03;;
15958;SDS011;8078;47.822;9.402;2023-06-01T11:02:42;10.15;;;5.80;;
15958;SDS011;8078;47.822;9.402;2023-06-01T11:13:23;9.80;;;6.38;;
15958;SDS011;8078;47.822;9.402;2023-06-01T11:18:51;9.60;;;6.00;;
15958;SDS011;8078;47.822;9.402;2023-06-01T11:21:24;8.90;;;6.28;;
15958;SDS011;8078;47.822;9.402;2023-06-01T11:23:52;12.23;;;5.88;;
15958;SDS011;8078;47.822;9.402;2023-06-01T11:26:22;8.32;;;6.22;;
15958;SDS011;8078;47.822;9.402;2023-06-01T11:28:50;8.77;;;5.75;;
15958;SDS011;8078;47.822;9.402;2023-06-01T11:31:17;6.13;;;5.25;;
15958;SDS011;8078;47.822;9.402;2023-06-01T11:33:51;9.30;;;5.40;;
15958;SDS011;8078;47.822;9.402;2023-06-01T11:36:18;8.50;;;5.30;;
15958;SDS011;8078;47.822;9.402;2023-06-01T11:38:45;9.95;;;5.55;;
15958;SDS011;8078;47.822;9.402;2023-06-01T11:41:11;6.72;;;5.32;;
15958;SDS011;8078;47.822;9.402;2023-06-01T11:43:36;7.20;;;5.00;;
15958;SDS011;8078;47.822;9.402;2023-06-01T11:46:03;5.75;;;4.97;;
15958;SDS011;8078;47.822;9.402;2023-06-01T11:48:30;8.00;;;5.32;;
15958;SDS011;8078;47.822;9.402;2023-06-01T11:50:56;6.30;;;4.88;;
15958;SDS011;8078;47.822;9.402;2023-06-01T11:53:24;9.63;;;5.75;;
15958;SDS011;8078;47.822;9.402;2023-06-01T11:55:55;7.93;;;5.43;;
15958;SDS011;8078;47.822;9.402;2023-06-01T11:58:25;8.40;;;5.93;;
15958;SDS011;8078;47.822;9.402;2023-06-01T12:00:51;9.00;;;5.25;;
15958;SDS011;8078;47.822;9.402;2023-06-01T12:03:18;6.70;;;5.18;;
15958;SDS011;8078;47.822;9.402;2023-06-01T12:05:44;7.63;;;5.57;;
15958;SDS011;8078;47.822;9.402;2023-06-01T12:08:14;6.45;;;5.45;;
15958;SDS011;8078;47.822;9.402;2023-06-01T12:10:42;7.75;;;5.57;;
15958;SDS011;8078;47.822;9.402;2023-06-01T12:13:09;7.75;;;5.38;;
15958;SDS011;8078;47.822;9.402;2023-06-01T12:15:36;12.73;;;5.38;;
15958;SDS011;8078;47.822;9.402;2023-06-01T12:18:02;6.35;;;5.30;;
15958;SDS011;8078;47.822;9.402;2023-06-01T12:20:28;11.30;;;6.05;;
15958;SDS011;8078;47.822;9.402;2023-06-01T12:22:55;11.55;;;5.45;;
15958;SDS011;8078;47.822;9.402;2023-06-01T12:25:22;8.10;;;5.18;;
15958;SDS011;8078;47.822;9.402;2023-06-01T12:30:29;10.60;;;5.25;;
15958;SDS011;8078;47.822;9.402;2023-06-01T12:32:55;7.60;;;5.20;;
15958;SDS011;8078;47.822;9.402;2023-06-01T12:35:21;7.50;;;5.60;;
15958;SDS011;8078;47.822;9.402;2023-06-01T12:38:07;10.05;;;5.55;;
15958;SDS011;8078;47.822;9.402;2023-06-01T12:40:35;9.43;;;6.00;;
15958;SDS011;8078;47.822;9.402;2023-06-01T12:43:01;15.48;;;6.25;;
15958;SDS011;8078;47.822;9.402;2023-06-01T12:45:35;7.47;;;5.55;;
15958;SDS011;8078;47.822;9.402;2023-06-01T12:48:01;7.82;;;6.15;;
15958;SDS011;8078;47.822;9.402;2023-06-01T12:50:28;8.15;;;5.55;;
15958;SDS011;8078;47.822;9.402;2023-06-01T12:52:54;8.82;;;5.63;;
15958;SDS011;8078;47.822;9.402;2023-06-01T12:55:19;8.07;;;5.40;;
15958;SDS011;8078;47.822;9.402;2023-06-01T12:57:51;10.65;;;5.68;;
15958;SDS011;8078;47.822;9.402;2023-06-01T13:00:18;7.65;;;5.15;;
15958;SDS011;8078;47.822;9.402;2023-06-01T13:02:44;13.98;;;5.47;;
15958;SDS011;8078;47.822;9.402;2023-06-01T13:05:13;6.10;;;5.32;;
15958;SDS011;8078;47.822;9.402;2023-06-01T13:07:41;6.35;;;4.85;;
15958;SDS011;8078;47.822;9.402;2023-06-01T13:10:06;7.88;;;5.20;;
15958;SDS011;8078;47.822;9.402;2023-06-01T13:12:34;9.38;;;4.32;;
15958;SDS011;8078;47.822;9.402;2023-06-01T13:14:59;7.40;;;5.35;;
15958;SDS011;8078;47.822;9.402;2023-06-01T13:17:25;10.02;;;4.90;;
15958;SDS011;8078;47.822;9.402;2023-06-01T13:19:51;6.82;;;5.05;;
15958;SDS011;8078;47.822;9.402;2023-06-01T13:22:17;7.95;;;4.68;;
15958;SDS011;8078;47.822;9.402;2023-06-01T13:24:44;5.63;;;5.00;;
15958;SDS011;8078;47.822;9.402;2023-06-01T13:27:09;7.80;;;4.72;;
15958;SDS011;8078;47.822;9.402;2023-06-01T13:29:35;6.45;;;4.53;;
15958;SDS011;8078;47.822;9.402;2023-06-01T13:32:00;6.38;;;5.57;;
15958;SDS011;8078;47.822;9.402;2023-06-01T13:34:26;8.30;;;5.28;;
15958;SDS011;8078;47.822;9.402;2023-06-01T13:36:52;10.27;;;5.93;;
15958;SDS011;8078;47.822;9.402;2023-06-01T13:39:17;6.38;;;5.03;;
15958;SDS011;8078;47.822;9.402;2023-06-01T13:41:44;7.63;;;5.60;;
15958;SDS011;8078;47.822;9.402;2023-06-01T13:44:09;12.70;;;5.28;;
15958;SDS011;8078;47.822;9.402;2023-06-01T13:46:35;6.32;;;4.43;;
15958;SDS011;8078;47.822;9.402;2023-06-01T13:49:01;7.57;;;4.85;;
15958;SDS011;8078;47.822;9.402;2023-06-01T13:51:26;7.05;;;5.10;;
15958;SDS011;8078;47.822;9.402;2023-06-01T13:53:53;8.80;;;5.10;;
15958;SDS011;8078;47.822;9.402;2023-06-01T13:56:18;7.80;;;5.70;;
15958;SDS011;8078;47.822;9.402;2023-06-01T13:58:46;8.35;;;6.13;;
15958;SDS011;8078;47.822;9.402;2023-06-01T14:01:11;7.20;;;5.38;;
15958;SDS011;8078;47.822;9.402;2023-06-01T14:03:37;11.20;;;5.78;;
15958;SDS011;8078;47.822;9.402;2023-06-01T14:06:02;6.30;;;5.20;;
15958;SDS011;8078;47.822;9.402;2023-06-01T14:08:28;7.72;;;5.03;;
15958;SDS011;8078;47.822;9.402;2023-06-01T14:10:54;7.72;;;5.72;;
15958;SDS011;8078;47.822;9.402;2023-06-01T14:13:19;9.18;;;4.97;;
15958;SDS011;8078;47.822;9.402;2023-06-01T14:15:45;7.40;;;4.80;;
15958;SDS011;8078;47.822;9.402;2023-06-01T14:18:10;9.18;;;4.82;;
15958;SDS011;8078;47.822;9.402;2023-06-01T14:20:36;6.38;;;4.57;;
15958;SDS011;8078;47.822;9.402;2023-06-01T14:23:02;5.47;;;4.35;;
15958;SDS011;8078;47.822;9.402;2023-06-01T14:25:28;7.05;;;4.68;;
15958;SDS011;8078;47.822;9.402;2023-06-01T14:27:54;8.05;;;4.13;;
15958;SDS011;8078;47.822;9.402;2023-06-01T14:30:20;8.07;;;4.55;;
15958;SDS011;8078;47.822;9.402;2023-06-01T14:32:45;8.45;;;4.47;;
15958;SDS011;8078;47.822;9.402;2023-06-01T14:35:11;7.22;;;4.80;;
15958;SDS011;8078;47.822;9.402;2023-06-01T14:37:41;6.47;;;5.10;;
15958;SDS011;8078;47.822;9.402;2023-06-01T14:40:07;9.90;;;4.88;;
15958;SDS011;8078;47.822;9.402;2023-06-01T14:42:33;7.97;;;4.20;;
15958;SDS011;8078;47.822;9.402;2023-06-01T14:44:59;10.18;;;4.60;;
15958;SDS011;8078;47.822;9.402;2023-06-01T14:47:24;8.20;;;5.32;;
15958;SDS011;8078;47.822;9.402;2023-06-01T14:49:50;7.85;;;4.60;;
15958;SDS011;8078;47.822;9.402;2023-06-01T14:52:17;9.13;;;4.30;;
15958;SDS011;8078;47.822;9.402;2023-06-01T14:54:42;5.88;;;4.47;;
15958;SDS011;8078;47.822;9.402;2023-06-01T14:57:08;6.70;;;4.22;;
15958;SDS011;8078;47.822;9.402;2023-06-01T14:59:33;7.47;;;4.47;;
15958;SDS011;8078;47.822;9.402;2023-06-01T15:02:01;8.63;;;4.68;;
15958;SDS011;8078;47.822;9.402;2023-06-01T15:04:28;10.27;;;4.93;;
15958;SDS011;8078;47.822;9.402;2023-06-01T15:06:54;8.35;;;4.68;;
15958;SDS011;8078;47.822;9.402;2023-06-01T15:09:20;6.95;;;4.50;;
15958;SDS011;8078;47.822;9.402;2023-06-01T15:11:45;6.25;;;4.20;;
15958;SDS011;8078;47.822;9.402;2023-06-01T15:14:11;10.38;;;4.97;;
15958;SDS011;8078;47.822;9.402;2023-06-01T15:16:36;6.35;;;4.53;;
15958;SDS011;8078;47.822;9.402;2023-06-01T15:19:02;6.97;;;4.13;;
15958;SDS011;8078;47.822;9.402;2023-06-01T15:21:27;6.55;;;4.70;;
15958;SDS011;8078;47.822;9.402;2023-06-01T15:23:53;6.95;;;4.13;;
15958;SDS011;8078;47.822;9.402;2023-06-01T15:26:19;6.53;;;4.18;;
15958;SDS011;8078;47.822;9.402;2023-06-01T15:28:44;9.15;;;3.90;;
15958;SDS011;8078;47.822;9.402;2023-06-01T15:31:10;6.28;;;4.10;;
15958;SDS011;8078;47.822;9.402;2023-06-01T15:33:38;8.70;;;4.18;;
15958;SDS011;8078;47.822;9.402;2023-06-01T15:36:03;6.68;;;3.58;;
15958;SDS011;8078;47.822;9.402;2023-06-01T15:38:30;7.63;;;4.07;;